sensor_id;sensor_type;location;lat;lon;timestamp;pressure;altitude;pressure_sealevel;temperature;humidity
60337;BME280;46978;50.288;28.624;2022-12-18T00:00:45;99473.93;;;-4.52;98.63
60337;BME280;46978;50.288;28.624;2022-12-18T00:01:47;99476.39;;;-4.53;98.30
60337;BME280;46978;50.288;28.624;2022-12-18T00:02:48;99477.31;;;-4.51;98.42
60337;BME280;46978;50.288;28.624;2022-12-18T00:03:51;99484.19;;;-4.48;98.55
60337;BME280;46978;50.288;28.624;2022-12-18T00:04:53;99477.38;;;-4.50;98.55
60337;BME280;46978;50.288;28.624;2022-12-18T00:05:55;99480.88;;;-4.47;98.48
60337;BME280;46978;50.288;28.624;2022-12-18T00:06:57;99472.19;;;-4.53;97.67
60337;BME280;46978;50.288;28.624;2022-12-18T00:07:59;99484.13;;;-4.50;97.85
60337;BME280;46978;50.288;28.624;2022-12-18T00:09:02;99484.13;;;-4.50;97.20
60337;BME280;46978;50.288;28.624;2022-12-18T00:10:05;99481.39;;;-4.55;97.32
60337;BME280;46978;50.288;28.624;2022-12-18T00:11:10;99481.39;;;-4.55;97.32
60337;BME280;46978;50.288;28.624;2022-12-18T00:12:11;99486.45;;;-4.55;97.35
60337;BME280;46978;50.288;28.624;2022-12-18T00:13:13;99488.06;;;-4.57;97.23
60337;BME280;46978;50.288;28.624;2022-12-18T00:14:15;99491.52;;;-4.55;97.35
60337;BME280;46978;50.288;28.624;2022-12-18T00:15:17;99490.66;;;-4.55;97.50
60337;BME280;46978;50.288;28.624;2022-12-18T00:16:21;99499.05;;;-4.56;97.43
60337;BME280;46978;50.288;28.624;2022-12-18T00:17:23;99483.00;;;-4.57;97.38
60337;BME280;46978;50.288;28.624;2022-12-18T00:18:24;99488.78;;;-4.59;97.05
60337;BME280;46978;50.288;28.624;2022-12-18T00:19:26;99488.78;;;-4.59;97.05
60337;BME280;46978;50.288;28.624;2022-12-18T00:20:28;99497.30;;;-4.57;97.34
60337;BME280;46978;50.288;28.624;2022-12-18T00:21:31;99487.11;;;-4.59;96.87
60337;BME280;46978;50.288;28.624;2022-12-18T00:22:33;99495.59;;;-4.58;96.91
60337;BME280;46978;50.288;28.624;2022-12-18T00:23:36;99501.52;;;-4.58;96.78
60337;BME280;46978;50.288;28.624;2022-12-18T00:24:38;99500.59;;;-4.60;96.84
60337;BME280;46978;50.288;28.624;2022-12-18T00:25:40;99502.44;;;-4.56;97.11
60337;BME280;46978;50.288;28.624;2022-12-18T00:26:41;99504.05;;;-4.58;96.68
60337;BME280;46978;50.288;28.624;2022-12-18T00:27:43;99505.59;;;-4.61;96.30
60337;BME280;46978;50.288;28.624;2022-12-18T00:28:46;99505.52;;;-4.63;96.19
60337;BME280;46978;50.288;28.624;2022-12-18T00:29:48;99515.51;;;-4.66;96.02
60337;BME280;46978;50.288;28.624;2022-12-18T00:30:51;99514.55;;;-4.68;96.12
60337;BME280;46978;50.288;28.624;2022-12-18T00:31:52;99511.16;;;-4.69;96.25
60337;BME280;46978;50.288;28.624;2022-12-18T00:32:54;99518.69;;;-4.70;96.58
60337;BME280;46978;50.288;28.624;2022-12-18T00:33:56;99519.34;;;-4.74;96.94
60337;BME280;46978;50.288;28.624;2022-12-18T00:34:58;99521.94;;;-4.73;97.22
60337;BME280;46978;50.288;28.624;2022-12-18T00:36:04;99519.41;;;-4.73;97.20
60337;BME280;46978;50.288;28.624;2022-12-18T00:37:07;99521.08;;;-4.73;97.30
60337;BME280;46978;50.288;28.624;2022-12-18T00:38:08;99514.27;;;-4.74;96.92
60337;BME280;46978;50.288;28.624;2022-12-18T00:39:10;99522.69;;;-4.75;96.80
60337;BME280;46978;50.288;28.624;2022-12-18T00:40:14;99521.73;;;-4.77;96.26
60337;BME280;46978;50.288;28.624;2022-12-18T00:41:17;99527.54;;;-4.80;96.03
60337;BME280;46978;50.288;28.624;2022-12-18T00:42:19;99519.95;;;-4.80;96.12
60337;BME280;46978;50.288;28.624;2022-12-18T00:43:21;99526.51;;;-4.83;95.59
60337;BME280;46978;50.288;28.624;2022-12-18T00:44:22;99527.91;;;-4.90;95.31
60337;BME280;46978;50.288;28.624;2022-12-18T00:45:27;99536.35;;;-4.90;95.40
60337;BME280;46978;50.288;28.624;2022-12-18T00:46:29;99539.56;;;-4.94;95.35
60337;BME280;46978;50.288;28.624;2022-12-18T00:47:31;99542.88;;;-4.95;95.22
60337;BME280;46978;50.288;28.624;2022-12-18T00:48:32;99542.95;;;-4.93;95.52
60337;BME280;46978;50.288;28.624;2022-12-18T00:49:34;99553.92;;;-4.93;95.68
60337;BME280;46978;50.288;28.624;2022-12-18T00:50:36;99541.13;;;-4.96;95.60
60337;BME280;46978;50.288;28.624;2022-12-18T00:51:38;99543.59;;;-4.97;95.75
60337;BME280;46978;50.288;28.624;2022-12-18T00:52:39;99552.07;;;-4.97;95.68
60337;BME280;46978;50.288;28.624;2022-12-18T00:53:41;99552.71;;;-5.01;95.56
60337;BME280;46978;50.288;28.624;2022-12-18T00:54:43;99547.72;;;-4.99;95.55
60337;BME280;46978;50.288;28.624;2022-12-18T00:55:45;99552.00;;;-4.98;95.57
60337;BME280;46978;50.288;28.624;2022-12-18T00:56:47;99547.80;;;-4.98;95.51
60337;BME280;46978;50.288;28.624;2022-12-18T00:57:51;99536.06;;;-4.96;96.07
60337;BME280;46978;50.288;28.624;2022-12-18T00:58:53;99543.80;;;-4.93;96.05
60337;BME280;46978;50.288;28.624;2022-12-18T00:59:54;99547.22;;;-4.92;95.84
60337;BME280;46978;50.288;28.624;2022-12-18T01:00:56;99554.89;;;-4.91;96.03
60337;BME280;46978;50.288;28.624;2022-12-18T01:01:58;99547.30;;;-4.91;95.44
60337;BME280;46978;50.288;28.624;2022-12-18T01:03:00;99555.74;;;-4.90;95.32
60337;BME280;46978;50.288;28.624;2022-12-18T01:04:02;99554.89;;;-4.91;94.72
60337;BME280;46978;50.288;28.624;2022-12-18T01:05:05;99564.94;;;-4.92;94.72
60337;BME280;46978;50.288;28.624;2022-12-18T01:06:10;99560.59;;;-4.95;93.86
60337;BME280;46978;50.288;28.624;2022-12-18T01:07:12;99566.36;;;-4.97;93.88
60337;BME280;46978;50.288;28.624;2022-12-18T01:08:13;99567.25;;;-4.97;94.06
60337;BME280;46978;50.288;28.624;2022-12-18T01:09:15;99568.11;;;-4.96;94.08
60337;BME280;46978;50.288;28.624;2022-12-18T01:10:17;99565.58;;;-4.96;94.43
60337;BME280;46978;50.288;28.624;2022-12-18T01:11:20;99576.41;;;-4.99;93.82
60337;BME280;46978;50.288;28.624;2022-12-18T01:12:22;99577.02;;;-5.05;92.66
60337;BME280;46978;50.288;28.624;2022-12-18T01:13:24;99578.80;;;-5.02;93.74
60337;BME280;46978;50.288;28.624;2022-12-18T01:14:26;99583.86;;;-5.02;93.43
60337;BME280;46978;50.288;28.624;2022-12-18T01:15:27;99580.47;;;-5.02;93.44
60337;BME280;46978;50.288;28.624;2022-12-18T01:16:29;99591.38;;;-5.04;93.00
60337;BME280;46978;50.288;28.624;2022-12-18T01:17:31;99587.84;;;-5.07;92.54
60337;BME280;46978;50.288;28.624;2022-12-18T01:18:32;99590.37;;;-5.07;92.21
60337;BME280;46978;50.288;28.624;2022-12-18T01:19:34;99575.83;;;-5.11;92.09
60337;BME280;46978;50.288;28.624;2022-12-18T01:20:37;99586.77;;;-5.12;91.99
60337;BME280;46978;50.288;28.624;2022-12-18T01:21:39;99595.14;;;-5.13;92.14
60337;BME280;46978;50.288;28.624;2022-12-18T01:22:41;99581.70;;;-5.12;92.64
60337;BME280;46978;50.288;28.624;2022-12-18T01:23:42;99591.83;;;-5.12;92.55
60337;BME280;46978;50.288;28.624;2022-12-18T01:24:44;99590.08;;;-5.13;92.33
60337;BME280;46978;50.288;28.624;2022-12-18T01:25:46;99586.77;;;-5.12;92.77
60337;BME280;46978;50.288;28.624;2022-12-18T01:26:48;99584.23;;;-5.12;92.13
60337;BME280;46978;50.288;28.624;2022-12-18T01:27:49;99590.86;;;-5.14;92.39
60337;BME280;46978;50.288;28.624;2022-12-18T01:28:53;99591.01;;;-5.11;92.76
60337;BME280;46978;50.288;28.624;2022-12-18T01:29:55;99580.03;;;-5.12;92.74
60337;BME280;46978;50.288;28.624;2022-12-18T01:30:57;99594.28;;;-5.14;91.91
60337;BME280;46978;50.288;28.624;2022-12-18T01:31:59;99590.86;;;-5.14;91.99
60337;BME280;46978;50.288;28.624;2022-12-18T01:33:00;99599.34;;;-5.14;92.49
60337;BME280;46978;50.288;28.624;2022-12-18T01:34:04;99599.49;;;-5.11;92.93
60337;BME280;46978;50.288;28.624;2022-12-18T01:35:07;99600.50;;;-5.07;93.11
60337;BME280;46978;50.288;28.624;2022-12-18T01:36:15;99597.89;;;-5.09;93.02
60337;BME280;46978;50.288;28.624;2022-12-18T01:37:18;99597.97;;;-5.07;93.28
60337;BME280;46978;50.288;28.624;2022-12-18T01:38:19;99597.11;;;-5.08;92.47
60337;BME280;46978;50.288;28.624;2022-12-18T01:39:21;99592.83;;;-5.09;92.54
60337;BME280;46978;50.288;28.624;2022-12-18T01:40:23;99592.76;;;-5.10;92.53
60337;BME280;46978;50.288;28.624;2022-12-18T01:41:27;99598.60;;;-5.11;92.52
60337;BME280;46978;50.288;28.624;2022-12-18T01:42:29;99602.02;;;-5.11;92.89
60337;BME280;46978;50.288;28.624;2022-12-18T01:46:02;99595.22;;;-5.12;93.09
60337;BME280;46978;50.288;28.624;2022-12-18T01:47:03;99594.28;;;-5.14;92.62
60337;BME280;46978;50.288;28.624;2022-12-18T01:48:07;99597.59;;;-5.15;92.61
60337;BME280;46978;50.288;28.624;2022-12-18T01:49:09;99598.30;;;-5.17;92.50
60337;BME280;46978;50.288;28.624;2022-12-18T01:50:18;99598.45;;;-5.14;92.89
60337;BME280;46978;50.288;28.624;2022-12-18T01:51:20;99598.45;;;-5.14;92.89
60337;BME280;46978;50.288;28.624;2022-12-18T01:52:25;99592.31;;;-5.19;92.14
60337;BME280;46978;50.288;28.624;2022-12-18T01:53:28;99604.18;;;-5.18;92.42
60337;BME280;46978;50.288;28.624;2022-12-18T01:54:30;99599.27;;;-5.15;92.92
60337;BME280;46978;50.288;28.624;2022-12-18T01:55:43;99605.11;;;-5.16;92.31
60337;BME280;46978;50.288;28.624;2022-12-18T01:56:45;99605.11;;;-5.16;92.67
60337;BME280;46978;50.288;28.624;2022-12-18T01:57:48;99612.78;;;-5.15;92.73
60337;BME280;46978;50.288;28.624;2022-12-18T01:59:03;99614.45;;;-5.15;92.66
60337;BME280;46978;50.288;28.624;2022-12-18T02:00:13;99605.11;;;-5.16;92.46
60337;BME280;46978;50.288;28.624;2022-12-18T02:01:15;99616.23;;;-5.13;93.11
60337;BME280;46978;50.288;28.624;2022-12-18T02:02:17;99609.54;;;-5.12;93.24
60337;BME280;46978;50.288;28.624;2022-12-18T02:03:20;99617.20;;;-5.11;93.12
60337;BME280;46978;50.288;28.624;2022-12-18T02:04:24;99618.20;;;-5.07;93.33
60337;BME280;46978;50.288;28.624;2022-12-18T02:06:34;99615.53;;;-5.10;92.31
60337;BME280;46978;50.288;28.624;2022-12-18T02:09:09;99618.91;;;-5.10;92.44
60337;BME280;46978;50.288;28.624;2022-12-18T02:10:31;99620.73;;;-5.07;92.66
60337;BME280;46978;50.288;28.624;2022-12-18T02:11:47;99626.66;;;-5.07;92.75
60337;BME280;46978;50.288;28.624;2022-12-18T02:18:25;99631.64;;;-5.08;93.79
60337;BME280;46978;50.288;28.624;2022-12-18T02:20:02;99622.27;;;-5.11;93.89
60337;BME280;46978;50.288;28.624;2022-12-18T02:21:34;99632.45;;;-5.09;94.22
60337;BME280;46978;50.288;28.624;2022-12-18T02:24:16;99642.58;;;-5.09;94.62
60337;BME280;46978;50.288;28.624;2022-12-18T02:25:26;99639.97;;;-5.11;94.22
60337;BME280;46978;50.288;28.624;2022-12-18T02:26:38;99644.95;;;-5.12;94.15
60337;BME280;46978;50.288;28.624;2022-12-18T02:27:42;99654.11;;;-5.14;94.27
60337;BME280;46978;50.288;28.624;2022-12-18T02:28:51;99651.58;;;-5.14;94.54
60337;BME280;46978;50.288;28.624;2022-12-18T02:29:53;99653.18;;;-5.16;94.40
60337;BME280;46978;50.288;28.624;2022-12-18T02:30:59;99655.48;;;-5.21;93.88
60337;BME280;46978;50.288;28.624;2022-12-18T02:32:05;99660.47;;;-5.23;94.22
60337;BME280;46978;50.288;28.624;2022-12-18T02:33:09;99656.27;;;-5.22;94.25
60337;BME280;46978;50.288;28.624;2022-12-18T02:34:13;99651.20;;;-5.22;94.45
60337;BME280;46978;50.288;28.624;2022-12-18T02:35:24;99650.34;;;-5.23;94.19
60337;BME280;46978;50.288;28.624;2022-12-18T02:36:28;99655.25;;;-5.26;94.12
60337;BME280;46978;50.288;28.624;2022-12-18T02:37:32;99660.39;;;-5.24;94.58
60337;BME280;46978;50.288;28.624;2022-12-18T02:38:36;99659.45;;;-5.26;94.36
60337;BME280;46978;50.288;28.624;2022-12-18T02:39:40;99660.39;;;-5.24;94.52
60337;BME280;46978;50.288;28.624;2022-12-18T02:40:44;99660.31;;;-5.26;94.35
60337;BME280;46978;50.288;28.624;2022-12-18T02:41:48;99665.37;;;-5.26;94.54
60337;BME280;46978;50.288;28.624;2022-12-18T02:42:50;99667.98;;;-5.24;94.90
60337;BME280;46978;50.288;28.624;2022-12-18T02:44:00;99667.91;;;-5.26;94.12
60337;BME280;46978;50.288;28.624;2022-12-18T02:45:03;99674.63;;;-5.26;94.31
60337;BME280;46978;50.288;28.624;2022-12-18T02:46:29;99664.52;;;-5.26;94.55
60337;BME280;46978;50.288;28.624;2022-12-18T02:47:33;99674.70;;;-5.25;94.63
60337;BME280;46978;50.288;28.624;2022-12-18T02:48:36;99672.11;;;-5.26;93.96
60337;BME280;46978;50.288;28.624;2022-12-18T02:49:45;99667.05;;;-5.26;93.71
60337;BME280;46978;50.288;28.624;2022-12-18T02:50:52;99673.77;;;-5.27;93.72
60337;BME280;46978;50.288;28.624;2022-12-18T02:53:24;99676.08;;;-5.31;93.09
60337;BME280;46978;50.288;28.624;2022-12-18T02:54:55;99669.50;;;-5.28;93.60
60337;BME280;46978;50.288;28.624;2022-12-18T02:57:15;99674.48;;;-5.29;93.93
60337;BME280;46978;50.288;28.624;2022-12-18T02:58:20;99682.92;;;-5.29;94.19
60337;BME280;46978;50.288;28.624;2022-12-18T02:59:40;99687.98;;;-5.29;93.70
60337;BME280;46978;50.288;28.624;2022-12-18T03:02:33;99689.73;;;-5.28;94.07
60337;BME280;46978;50.288;28.624;2022-12-18T03:04:11;99697.25;;;-5.29;94.06
60337;BME280;46978;50.288;28.624;2022-12-18T03:06:41;99702.92;;;-5.33;94.31
60337;BME280;46978;50.288;28.624;2022-12-18T03:07:55;99700.40;;;-5.33;94.30
60337;BME280;46978;50.288;28.624;2022-12-18T03:09:01;99697.88;;;-5.33;94.27
60337;BME280;46978;50.288;28.624;2022-12-18T03:10:06;99706.97;;;-5.37;93.79
60337;BME280;46978;50.288;28.624;2022-12-18T03:11:11;99711.87;;;-5.40;93.63
60337;BME280;46978;50.288;28.624;2022-12-18T03:12:17;99715.34;;;-5.38;94.05
60337;BME280;46978;50.288;28.624;2022-12-18T03:13:28;99718.76;;;-5.37;94.05
60337;BME280;46978;50.288;28.624;2022-12-18T03:14:32;99711.17;;;-5.37;94.08
60337;BME280;46978;50.288;28.624;2022-12-18T03:15:38;99723.00;;;-5.36;94.11
60337;BME280;46978;50.288;28.624;2022-12-18T03:16:41;99729.81;;;-5.35;94.32
60337;BME280;46978;50.288;28.624;2022-12-18T03:17:49;99710.36;;;-5.36;93.78
60337;BME280;46978;50.288;28.624;2022-12-18T03:18:56;99720.48;;;-5.36;93.40
60337;BME280;46978;50.288;28.624;2022-12-18T03:19:58;99721.37;;;-5.36;93.55
60337;BME280;46978;50.288;28.624;2022-12-18T03:21:04;99723.00;;;-5.36;93.55
60337;BME280;46978;50.288;28.624;2022-12-18T03:22:07;99719.70;;;-5.35;93.73
60337;BME280;46978;50.288;28.624;2022-12-18T03:23:15;99728.95;;;-5.36;93.49
60337;BME280;46978;50.288;28.624;2022-12-18T03:24:18;99732.27;;;-5.37;93.59
60337;BME280;46978;50.288;28.624;2022-12-18T03:25:21;99729.81;;;-5.35;93.55
60337;BME280;46978;50.288;28.624;2022-12-18T03:26:26;99728.88;;;-5.37;93.19
60337;BME280;46978;50.288;28.624;2022-12-18T03:27:30;99733.13;;;-5.36;93.33
60337;BME280;46978;50.288;28.624;2022-12-18T03:28:38;99744.91;;;-5.37;93.99
60337;BME280;46978;50.288;28.624;2022-12-18T03:29:45;99731.48;;;-5.36;93.94
60337;BME280;46978;50.288;28.624;2022-12-18T03:30:50;99742.14;;;-5.42;92.98
60337;BME280;46978;50.288;28.624;2022-12-18T03:32:03;99747.20;;;-5.42;93.07
60337;BME280;46978;50.288;28.624;2022-12-18T03:33:27;99752.18;;;-5.43;93.34
60337;BME280;46978;50.288;28.624;2022-12-18T03:34:30;99746.19;;;-5.45;93.05
60337;BME280;46978;50.288;28.624;2022-12-18T03:35:37;99743.58;;;-5.47;93.07
60337;BME280;46978;50.288;28.624;2022-12-18T03:36:39;99749.41;;;-5.48;93.38
60337;BME280;46978;50.288;28.624;2022-12-18T03:37:41;99751.08;;;-5.48;93.32
60337;BME280;46978;50.288;28.624;2022-12-18T03:38:43;99751.86;;;-5.49;93.26
60337;BME280;46978;50.288;28.624;2022-12-18T03:39:45;99758.67;;;-5.48;93.36
60337;BME280;46978;50.288;28.624;2022-12-18T03:43:30;99750.11;;;-5.50;93.39
60337;BME280;46978;50.288;28.624;2022-12-18T03:44:35;99763.64;;;-5.50;93.29
60337;BME280;46978;50.288;28.624;2022-12-18T03:45:38;99756.75;;;-5.52;93.22
60337;BME280;46978;50.288;28.624;2022-12-18T03:49:18;99773.19;;;-5.61;93.55
60337;BME280;46978;50.288;28.624;2022-12-18T03:50:21;99772.46;;;-5.58;93.94
60337;BME280;46978;50.288;28.624;2022-12-18T03:51:32;99775.80;;;-5.59;93.83
60337;BME280;46978;50.288;28.624;2022-12-18T03:52:37;99779.19;;;-5.59;94.08
60337;BME280;46978;50.288;28.624;2022-12-18T03:53:55;99774.75;;;-5.63;93.85
60337;BME280;46978;50.288;28.624;2022-12-18T03:54:58;99769.69;;;-5.63;94.03
60337;BME280;46978;50.288;28.624;2022-12-18T03:56:02;99780.70;;;-5.62;94.34
60337;BME280;46978;50.288;28.624;2022-12-18T03:57:29;99790.89;;;-5.61;94.47
60337;BME280;46978;50.288;28.624;2022-12-18T03:58:20;99784.08;;;-5.62;94.31
60337;BME280;46978;50.288;28.624;2022-12-18T03:59:24;99784.94;;;-5.61;94.33
60337;BME280;46978;50.288;28.624;2022-12-18T04:00:27;99782.41;;;-5.61;94.41
60337;BME280;46978;50.288;28.624;2022-12-18T04:01:37;99787.55;;;-5.60;94.67
60337;BME280;46978;50.288;28.624;2022-12-18T04:02:42;99790.97;;;-5.59;94.52
60337;BME280;46978;50.288;28.624;2022-12-18T04:03:46;99794.36;;;-5.59;94.39
60337;BME280;46978;50.288;28.624;2022-12-18T04:04:52;99798.31;;;-5.64;94.45
60337;BME280;46978;50.288;28.624;2022-12-18T04:05:55;99800.84;;;-5.64;94.39
60337;BME280;46978;50.288;28.624;2022-12-18T04:06:59;99799.09;;;-5.65;94.11
60337;BME280;46978;50.288;28.624;2022-12-18T04:08:01;99805.89;;;-5.64;94.36
60337;BME280;46978;50.288;28.624;2022-12-18T04:09:04;99807.45;;;-5.66;94.36
60337;BME280;46978;50.288;28.624;2022-12-18T04:10:08;99807.28;;;-5.69;94.12
60337;BME280;46978;50.288;28.624;2022-12-18T04:11:11;99816.63;;;-5.68;94.05
60337;BME280;46978;50.288;28.624;2022-12-18T04:12:12;99808.26;;;-5.67;94.24
60337;BME280;46978;50.288;28.624;2022-12-18T04:13:49;99825.87;;;-5.68;94.15
60337;BME280;46978;50.288;28.624;2022-12-18T04:14:25;99814.87;;;-5.69;94.16
60337;BME280;46978;50.288;28.624;2022-12-18T04:15:27;99815.67;;;-5.70;93.76
60337;BME280;46978;50.288;28.624;2022-12-18T04:16:29;99809.64;;;-5.72;93.46
60337;BME280;46978;50.288;28.624;2022-12-18T04:17:31;99819.06;;;-5.69;93.72
60337;BME280;46978;50.288;28.624;2022-12-18T04:18:33;99810.70;;;-5.68;93.69
60337;BME280;46978;50.288;28.624;2022-12-18T04:19:34;99811.40;;;-5.71;93.06
60337;BME280;46978;50.288;28.624;2022-12-18T04:20:36;99829.95;;;-5.70;92.93
60337;BME280;46978;50.288;28.624;2022-12-18T04:21:38;99833.20;;;-5.73;92.85
60337;BME280;46978;50.288;28.624;2022-12-18T04:22:40;99832.31;;;-5.73;92.47
60337;BME280;46978;50.288;28.624;2022-12-18T04:23:41;99834.76;;;-5.75;92.45
60337;BME280;46978;50.288;28.624;2022-12-18T04:24:43;99831.28;;;-5.77;92.20
60337;BME280;46978;50.288;28.624;2022-12-18T04:25:46;99825.45;;;-5.76;92.46
60337;BME280;46978;50.288;28.624;2022-12-18T04:26:49;99828.84;;;-5.76;92.43
60337;BME280;46978;50.288;28.624;2022-12-18T04:27:50;99829.53;;;-5.78;91.86
60337;BME280;46978;50.288;28.624;2022-12-18T04:28:52;99843.76;;;-5.80;91.69
60337;BME280;46978;50.288;28.624;2022-12-18T04:29:53;99841.92;;;-5.83;92.12
60337;BME280;46978;50.288;28.624;2022-12-18T04:30:55;99841.23;;;-5.80;92.73
60337;BME280;46978;50.288;28.624;2022-12-18T04:31:57;99845.42;;;-5.81;92.69
60337;BME280;46978;50.288;28.624;2022-12-18T04:32:58;99852.20;;;-5.80;92.55
60337;BME280;46978;50.288;28.624;2022-12-18T04:34:00;99844.53;;;-5.81;92.46
60337;BME280;46978;50.288;28.624;2022-12-18T04:35:03;99845.51;;;-5.79;92.66
60337;BME280;46978;50.288;28.624;2022-12-18T04:36:06;99849.75;;;-5.78;92.77
60337;BME280;46978;50.288;28.624;2022-12-18T04:37:08;99855.53;;;-5.81;91.76
60337;BME280;46978;50.288;28.624;2022-12-18T04:38:10;99851.17;;;-5.83;91.51
60337;BME280;46978;50.288;28.624;2022-12-18T04:39:12;99852.67;;;-5.87;91.57
60337;BME280;46978;50.288;28.624;2022-12-18T04:40:14;99857.72;;;-5.87;91.80
60337;BME280;46978;50.288;28.624;2022-12-18T04:41:16;99851.69;;;-5.89;91.65
60337;BME280;46978;50.288;28.624;2022-12-18T04:42:17;99857.55;;;-5.90;91.83
60337;BME280;46978;50.288;28.624;2022-12-18T04:43:19;99855.80;;;-5.91;91.76
60337;BME280;46978;50.288;28.624;2022-12-18T04:44:21;99857.55;;;-5.90;91.78
60337;BME280;46978;50.288;28.624;2022-12-18T04:45:23;99854.13;;;-5.90;91.33
60337;BME280;46978;50.288;28.624;2022-12-18T04:46:24;99852.33;;;-5.93;91.19
60337;BME280;46978;50.288;28.624;2022-12-18T04:47:26;99866.52;;;-5.95;91.16
60337;BME280;46978;50.288;28.624;2022-12-18T04:48:28;99859.60;;;-5.99;91.12
60337;BME280;46978;50.288;28.624;2022-12-18T04:49:29;99868.04;;;-5.99;91.45
60337;BME280;46978;50.288;28.624;2022-12-18T04:50:32;99850.36;;;-5.99;91.58
60337;BME280;46978;50.288;28.624;2022-12-18T04:51:33;99869.63;;;-6.01;90.93
60337;BME280;46978;50.288;28.624;2022-12-18T04:52:35;99863.77;;;-6.00;90.97
60337;BME280;46978;50.288;28.624;2022-12-18T04:53:37;99868.81;;;-6.00;91.29
60337;BME280;46978;50.288;28.624;2022-12-18T04:54:39;99869.70;;;-5.99;91.00
60337;BME280;46978;50.288;28.624;2022-12-18T04:55:40;99873.09;;;-5.99;91.25
60337;BME280;46978;50.288;28.624;2022-12-18T04:56:43;99876.14;;;-6.04;90.23
60337;BME280;46978;50.288;28.624;2022-12-18T04:57:44;99877.03;;;-6.04;90.55
60337;BME280;46978;50.288;28.624;2022-12-18T04:58:46;99881.10;;;-6.06;90.55
60337;BME280;46978;50.288;28.624;2022-12-18T04:59:48;99881.02;;;-6.07;90.88
60337;BME280;46978;50.288;28.624;2022-12-18T05:00:50;99885.13;;;-6.09;90.89
60337;BME280;46978;50.288;28.624;2022-12-18T05:01:51;99890.09;;;-6.11;90.95
60337;BME280;46978;50.288;28.624;2022-12-18T05:02:53;99879.03;;;-6.13;90.91
60337;BME280;46978;50.288;28.624;2022-12-18T05:03:55;99898.09;;;-6.18;90.33
60337;BME280;46978;50.288;28.624;2022-12-18T05:04:57;99887.81;;;-6.21;90.54
60337;BME280;46978;50.288;28.624;2022-12-18T05:05:59;99895.47;;;-6.20;90.50
60337;BME280;46978;50.288;28.624;2022-12-18T05:07:01;99902.97;;;-6.21;90.83
60337;BME280;46978;50.288;28.624;2022-12-18T05:08:03;99897.83;;;-6.23;90.77
60337;BME280;46978;50.288;28.624;2022-12-18T05:09:05;99901.16;;;-6.24;90.40
60337;BME280;46978;50.288;28.624;2022-12-18T05:10:08;99906.30;;;-6.22;90.97
60337;BME280;46978;50.288;28.624;2022-12-18T05:11:14;99899.66;;;-6.20;91.24
60337;BME280;46978;50.288;28.624;2022-12-18T05:12:16;99913.88;;;-6.22;90.48
60337;BME280;46978;50.288;28.624;2022-12-18T05:13:18;99912.20;;;-6.22;90.82
60337;BME280;46978;50.288;28.624;2022-12-18T05:14:19;99916.58;;;-6.19;91.09
60337;BME280;46978;50.288;28.624;2022-12-18T05:15:21;99917.44;;;-6.19;90.94
60337;BME280;46978;50.288;28.624;2022-12-18T05:16:23;99912.30;;;-6.20;90.72
60337;BME280;46978;50.288;28.624;2022-12-18T05:17:25;99922.40;;;-6.20;90.93
60337;BME280;46978;50.288;28.624;2022-12-18T05:18:27;99929.20;;;-6.19;90.99
60337;BME280;46978;50.288;28.624;2022-12-18T05:19:28;99928.40;;;-6.18;90.63
60337;BME280;46978;50.288;28.624;2022-12-18T05:20:31;99930.48;;;-6.26;90.49
60337;BME280;46978;50.288;28.624;2022-12-18T05:21:32;99929.36;;;-6.31;90.77
60337;BME280;46978;50.288;28.624;2022-12-18T05:22:34;99931.02;;;-6.32;90.93
60337;BME280;46978;50.288;28.624;2022-12-18T05:23:36;99934.58;;;-6.28;91.31
60337;BME280;46978;50.288;28.624;2022-12-18T05:24:38;99939.05;;;-6.24;91.56
60337;BME280;46978;50.288;28.624;2022-12-18T05:25:39;99944.00;;;-6.25;91.40
60337;BME280;46978;50.288;28.624;2022-12-18T05:26:41;99944.77;;;-6.26;91.44
60337;BME280;46978;50.288;28.624;2022-12-18T05:27:43;99950.00;;;-6.23;91.46
60337;BME280;46978;50.288;28.624;2022-12-18T05:28:45;99944.19;;;-6.22;91.65
60337;BME280;46978;50.288;28.624;2022-12-18T05:29:47;99950.00;;;-6.23;91.44
60337;BME280;46978;50.288;28.624;2022-12-18T05:30:50;99939.63;;;-6.28;91.17
60337;BME280;46978;50.288;28.624;2022-12-18T05:31:51;99959.06;;;-6.27;91.37
60337;BME280;46978;50.288;28.624;2022-12-18T05:32:53;99949.05;;;-6.25;91.78
60337;BME280;46978;50.288;28.624;2022-12-18T05:33:55;99953.21;;;-6.26;91.69
60337;BME280;46978;50.288;28.624;2022-12-18T05:34:56;99954.87;;;-6.26;91.93
60337;BME280;46978;50.288;28.624;2022-12-18T05:36:00;99960.70;;;-6.27;91.82
60337;BME280;46978;50.288;28.624;2022-12-18T05:37:02;99959.84;;;-6.28;91.81
60337;BME280;46978;50.288;28.624;2022-12-18T05:38:03;99964.12;;;-6.27;91.93
60337;BME280;46978;50.288;28.624;2022-12-18T05:39:05;99961.77;;;-6.24;92.41
60337;BME280;46978;50.288;28.624;2022-12-18T05:40:08;99967.50;;;-6.26;91.98
60337;BME280;46978;50.288;28.624;2022-12-18T05:41:11;99970.03;;;-6.26;92.00
60337;BME280;46978;50.288;28.624;2022-12-18T05:42:13;99972.73;;;-6.23;92.84
60337;BME280;46978;50.288;28.624;2022-12-18T05:43:14;99963.58;;;-6.21;93.13
60337;BME280;46978;50.288;28.624;2022-12-18T05:44:16;99969.08;;;-6.28;91.92
60337;BME280;46978;50.288;28.624;2022-12-18T05:45:18;99973.05;;;-6.32;91.35
60337;BME280;46978;50.288;28.624;2022-12-18T05:46:20;99985.77;;;-6.31;91.84
60337;BME280;46978;50.288;28.624;2022-12-18T05:47:21;99990.83;;;-6.31;92.48
60337;BME280;46978;50.288;28.624;2022-12-18T05:48:23;99986.75;;;-6.28;92.67
60337;BME280;46978;50.288;28.624;2022-12-18T05:49:25;99995.97;;;-6.29;91.81
60337;BME280;46978;50.288;28.624;2022-12-18T05:50:27;100002.50;;;-6.33;90.97
60337;BME280;46978;50.288;28.624;2022-12-18T05:51:29;99999.11;;;-6.33;90.96
60337;BME280;46978;50.288;28.624;2022-12-18T05:52:30;100006.51;;;-6.36;90.19
60337;BME280;46978;50.288;28.624;2022-12-18T05:53:32;99998.93;;;-6.36;90.31
60337;BME280;46978;50.288;28.624;2022-12-18T05:54:34;99999.79;;;-6.36;90.56
60337;BME280;46978;50.288;28.624;2022-12-18T05:55:38;100001.36;;;-6.38;90.26
60337;BME280;46978;50.288;28.624;2022-12-18T05:56:40;100008.05;;;-6.38;89.98
60337;BME280;46978;50.288;28.624;2022-12-18T05:57:42;100002.22;;;-6.37;90.18